createdAt,value
2023-05-16T00:01:46.290Z,6.37
2023-05-16T00:04:13.283Z,7.57
2023-05-16T00:06:39.977Z,7.50
2023-05-16T00:09:07.221Z,6.30
2023-05-16T00:11:33.850Z,28.10
2023-05-16T00:14:01.756Z,7.93
2023-05-16T00:16:30.339Z,7.33
2023-05-16T00:19:01.309Z,6.00
2023-05-16T00:21:28.320Z,8.93
2023-05-16T00:23:55.063Z,8.53
2023-05-16T00:26:22.053Z,7.50
2023-05-16T00:28:49.010Z,5.07
2023-05-16T00:31:15.974Z,7.43
2023-05-16T00:33:42.635Z,8.40
2023-05-16T00:36:09.323Z,5.30
2023-05-16T00:38:36.001Z,7.20
2023-05-16T00:41:02.594Z,7.57
2023-05-16T00:43:29.218Z,4.27
2023-05-16T00:45:58.223Z,6.17
2023-05-16T00:48:25.270Z,4.60
2023-05-16T00:50:53.094Z,3.63
2023-05-16T00:53:20.135Z,4.03
2023-05-16T00:55:47.687Z,5.47
2023-05-16T00:58:15.007Z,5.27
2023-05-16T01:00:41.950Z,4.80
2023-05-16T01:03:08.918Z,3.03
2023-05-16T01:05:35.627Z,5.13
2023-05-16T01:08:02.280Z,5.30
2023-05-16T01:13:37.210Z,5.20
2023-05-16T01:16:27.609Z,3.47
2023-05-16T01:19:08.421Z,3.53
2023-05-16T01:21:58.545Z,2.77
2023-05-16T01:24:36.434Z,7.13
2023-05-16T01:27:05.249Z,3.60
2023-05-16T01:29:32.525Z,5.30
2023-05-16T01:31:59.416Z,4.77
2023-05-16T01:34:26.507Z,6.30
2023-05-16T01:37:41.580Z,3.80
2023-05-16T01:40:27.649Z,3.73
2023-05-16T01:42:55.711Z,6.13
2023-05-16T01:45:31.778Z,3.07
2023-05-16T01:48:11.016Z,4.53
2023-05-16T01:50:44.812Z,5.40
2023-05-16T01:53:23.819Z,4.60
2023-05-16T01:55:52.791Z,6.23
2023-05-16T01:58:26.328Z,4.70
2023-05-16T02:00:54.053Z,4.90
2023-05-16T02:03:20.820Z,7.03
2023-05-16T02:05:47.561Z,5.70
2023-05-16T02:08:14.901Z,5.33
2023-05-16T02:10:41.667Z,6.13
2023-05-16T02:13:08.333Z,3.77
2023-05-16T02:15:34.971Z,5.20
2023-05-16T02:18:01.666Z,5.10
2023-05-16T02:20:28.268Z,6.33
2023-05-16T02:22:54.816Z,7.60
2023-05-16T02:25:21.494Z,6.53
2023-05-16T02:27:48.115Z,9.37
2023-05-16T02:30:14.861Z,3.47
2023-05-16T02:32:45.142Z,7.67
2023-05-16T02:35:12.593Z,9.43
2023-05-16T02:37:39.316Z,11.60
2023-05-16T02:40:06.584Z,5.13
2023-05-16T02:42:33.381Z,9.53
2023-05-16T02:45:00.210Z,6.67
2023-05-16T02:47:26.925Z,6.63
2023-05-16T02:49:53.707Z,4.63
2023-05-16T02:52:20.587Z,6.30
2023-05-16T02:54:59.848Z,13.13
2023-05-16T02:57:31.119Z,6.77
2023-05-16T02:59:57.655Z,9.83
2023-05-16T03:02:24.380Z,4.67
2023-05-16T03:04:50.961Z,7.03
2023-05-16T03:07:18.037Z,6.60
2023-05-16T03:09:44.576Z,12.07
2023-05-16T03:12:11.106Z,10.50
2023-05-16T03:14:37.632Z,6.43
2023-05-16T03:17:04.466Z,7.37
2023-05-16T03:19:31.042Z,9.00
2023-05-16T03:21:57.843Z,6.07
2023-05-16T03:24:25.333Z,5.37
2023-05-16T03:26:52.267Z,6.03
2023-05-16T03:29:18.909Z,8.90
2023-05-16T03:31:45.642Z,6.77
2023-05-16T03:34:12.267Z,18.27
2023-05-16T03:36:41.164Z,10.43
2023-05-16T03:39:08.758Z,7.33
2023-05-16T03:41:35.336Z,8.03
2023-05-16T03:44:01.970Z,9.53
2023-05-16T03:46:28.726Z,6.30
2023-05-16T03:48:55.261Z,10.03
2023-05-16T03:51:21.857Z,7.50
2023-05-16T03:53:48.371Z,9.70
2023-05-16T03:56:14.989Z,13.60
2023-05-16T03:58:41.626Z,10.97
2023-05-16T04:01:08.157Z,7.93
2023-05-16T04:03:34.791Z,11.97
2023-05-16T04:06:01.502Z,8.53
2023-05-16T04:08:28.157Z,13.03
2023-05-16T04:10:54.715Z,10.67
2023-05-16T04:13:21.610Z,9.03
2023-05-16T04:15:48.225Z,8.60
2023-05-16T04:18:14.881Z,9.90
2023-05-16T04:20:44.784Z,9.17
2023-05-16T04:23:12.151Z,8.33
2023-05-16T04:25:38.865Z,12.23
2023-05-16T04:28:06.138Z,11.93
2023-05-16T04:30:33.557Z,6.97
2023-05-16T04:33:00.223Z,14.57
2023-05-16T04:35:28.878Z,7.13
2023-05-16T04:37:56.077Z,14.17
2023-05-16T04:40:22.736Z,11.40
2023-05-16T04:42:49.713Z,8.93
2023-05-16T04:45:16.570Z,7.67
2023-05-16T04:47:43.186Z,16.60
2023-05-16T04:50:10.398Z,18.80
2023-05-16T04:52:38.323Z,9.63
2023-05-16T04:55:05.434Z,11.30
2023-05-16T04:57:32.092Z,9.67
2023-05-16T04:59:58.659Z,7.40
2023-05-16T05:02:25.326Z,9.57
2023-05-16T05:04:52.210Z,8.47
2023-05-16T05:07:19.035Z,13.30
2023-05-16T05:09:46.270Z,5.40
2023-05-16T05:12:12.873Z,7.10
2023-05-16T05:14:39.572Z,15.83
2023-05-16T05:17:06.624Z,10.07
2023-05-16T05:19:33.326Z,8.10
2023-05-16T05:22:00.298Z,11.43
2023-05-16T05:24:27.044Z,7.87
2023-05-16T05:26:53.729Z,16.77
2023-05-16T05:29:20.518Z,13.30
2023-05-16T05:31:47.497Z,10.40
2023-05-16T05:34:14.256Z,10.20
2023-05-16T05:36:41.000Z,8.97
2023-05-16T05:39:07.866Z,9.37
2023-05-16T05:41:34.905Z,8.50
2023-05-16T05:44:01.488Z,10.73
2023-05-16T05:46:28.259Z,7.40
2023-05-16T05:48:55.019Z,6.67
2023-05-16T05:51:21.993Z,10.20
2023-05-16T05:53:49.013Z,5.00
2023-05-16T05:56:15.665Z,6.70
2023-05-16T05:58:42.766Z,9.63
2023-05-16T06:01:11.452Z,10.67
2023-05-16T06:03:38.403Z,15.17
2023-05-16T06:06:05.555Z,6.80
2023-05-16T06:08:32.188Z,13.77
2023-05-16T06:10:58.794Z,7.77
2023-05-16T06:13:25.398Z,9.43
2023-05-16T06:15:53.102Z,13.03
2023-05-16T06:18:20.351Z,5.67
2023-05-16T06:20:47.614Z,7.17
2023-05-16T06:23:14.276Z,9.53
2023-05-16T06:25:41.006Z,4.80
2023-05-16T06:28:07.673Z,9.73
2023-05-16T06:30:35.053Z,6.63
2023-05-16T06:33:01.686Z,9.63
2023-05-16T06:35:28.540Z,8.40
2023-05-16T06:37:55.529Z,6.43
2023-05-16T06:40:23.454Z,6.17
2023-05-16T06:42:50.159Z,7.33
2023-05-16T06:45:16.908Z,9.33
2023-05-16T06:47:43.585Z,11.30
2023-05-16T06:50:11.152Z,5.07
2023-05-16T06:52:37.872Z,8.27
2023-05-16T06:55:04.910Z,9.20
2023-05-16T06:57:31.650Z,8.10
2023-05-16T06:59:58.300Z,6.93
2023-05-16T07:02:25.103Z,8.67
2023-05-16T07:04:51.879Z,9.97
2023-05-16T07:07:18.596Z,22.37
2023-05-16T07:09:45.283Z,7.03
2023-05-16T07:12:12.041Z,10.67
2023-05-16T07:14:38.661Z,7.27
2023-05-16T07:17:14.366Z,11.13
2023-05-16T07:19:41.044Z,5.43
2023-05-16T07:22:07.693Z,6.43
2023-05-16T07:24:34.409Z,5.80
2023-05-16T07:27:01.801Z,8.33
2023-05-16T07:29:28.644Z,6.23
2023-05-16T07:31:55.423Z,6.50
2023-05-16T07:34:22.120Z,8.30
2023-05-16T07:36:51.095Z,11.40
2023-05-16T07:39:19.038Z,8.23
2023-05-16T07:41:45.922Z,4.57
2023-05-16T07:44:12.572Z,5.80
2023-05-16T07:46:39.324Z,9.33
2023-05-16T07:49:06.262Z,6.57
2023-05-16T07:51:33.359Z,7.60
2023-05-16T07:54:00.078Z,3.70
2023-05-16T07:56:26.824Z,5.40
2023-05-16T07:58:53.691Z,2.70
2023-05-16T08:01:20.633Z,7.57
2023-05-16T08:03:47.270Z,4.60
2023-05-16T08:06:13.999Z,6.60
2023-05-16T08:08:40.924Z,5.87
2023-05-16T08:11:07.654Z,5.60
2023-05-16T08:13:34.285Z,8.27
2023-05-16T08:16:01.299Z,5.07
2023-05-16T08:18:27.945Z,8.47
2023-05-16T08:20:54.685Z,4.83
2023-05-16T08:23:21.381Z,5.00
2023-05-16T08:25:48.036Z,4.73
2023-05-16T08:28:15.433Z,6.27
2023-05-16T08:30:43.783Z,8.23
2023-05-16T08:33:11.310Z,11.33
2023-05-16T08:35:37.955Z,4.77
2023-05-16T08:38:04.984Z,13.43
2023-05-16T08:40:31.812Z,5.73
2023-05-16T08:42:59.355Z,6.53
2023-05-16T08:45:26.728Z,5.83
2023-05-16T08:47:57.063Z,5.83
2023-05-16T08:50:25.974Z,9.17
2023-05-16T08:52:53.939Z,6.37
2023-05-16T08:55:22.558Z,8.90
2023-05-16T08:57:53.222Z,2.60
2023-05-16T09:00:20.467Z,10.63
2023-05-16T09:02:47.390Z,4.30
2023-05-16T09:05:18.260Z,7.47
2023-05-16T09:07:46.296Z,4.10
2023-05-16T09:10:13.415Z,3.20
2023-05-16T09:12:44.499Z,3.63
2023-05-16T09:15:11.978Z,2.70
2023-05-16T09:17:44.370Z,5.10
2023-05-16T09:20:16.324Z,6.93
2023-05-16T09:22:59.515Z,4.27
2023-05-16T09:25:30.882Z,6.60
2023-05-16T09:27:59.209Z,3.37
2023-05-16T09:30:31.795Z,5.47
2023-05-16T09:32:59.607Z,3.30
2023-05-16T09:37:56.994Z,8.20
2023-05-16T09:40:24.331Z,5.67
2023-05-16T09:43:08.028Z,10.77
2023-05-16T09:45:36.513Z,10.37
2023-05-16T09:48:08.388Z,4.43
2023-05-16T09:50:36.430Z,3.53
2023-05-16T09:53:03.842Z,8.10
2023-05-16T09:55:31.565Z,10.30
2023-05-16T09:57:58.480Z,6.53
2023-05-16T10:00:35.321Z,7.13
2023-05-16T10:03:05.736Z,4.93
2023-05-16T10:05:34.948Z,3.73
2023-05-16T10:08:03.173Z,6.47
2023-05-16T10:10:30.873Z,14.87
2023-05-16T10:13:01.699Z,17.50
2023-05-16T10:15:29.719Z,10.80
2023-05-16T10:18:00.200Z,6.53
2023-05-16T10:20:27.701Z,7.73
2023-05-16T10:22:56.968Z,8.13
2023-05-16T10:25:36.710Z,8.53
2023-05-16T10:28:04.656Z,5.03
2023-05-16T10:30:34.054Z,5.37
2023-05-16T10:33:02.518Z,8.20
2023-05-16T10:35:29.714Z,11.10
2023-05-16T10:37:58.160Z,7.00
2023-05-16T10:40:25.066Z,8.23
2023-05-16T10:43:00.509Z,10.00
2023-05-16T10:45:27.597Z,8.57
2023-05-16T10:48:05.115Z,5.43
2023-05-16T10:50:40.095Z,9.30
2023-05-16T10:53:20.413Z,6.90
2023-05-16T10:55:49.743Z,10.10
2023-05-16T10:58:24.547Z,3.33
2023-05-16T11:01:30.416Z,5.47
2023-05-16T11:03:57.186Z,4.73
2023-05-16T11:06:25.113Z,8.63
2023-05-16T11:09:10.984Z,9.67
2023-05-16T11:11:53.804Z,7.47
2023-05-16T11:14:26.236Z,6.60
2023-05-16T11:17:23.293Z,6.57
2023-05-16T11:19:56.056Z,15.90
2023-05-16T11:22:24.727Z,4.83
2023-05-16T11:24:52.966Z,5.77
2023-05-16T11:27:33.877Z,3.20
2023-05-16T11:30:13.129Z,3.43
2023-05-16T11:32:42.836Z,3.37
2023-05-16T11:35:14.818Z,4.50
2023-05-16T11:37:42.841Z,4.67
2023-05-16T11:40:12.455Z,4.60
2023-05-16T11:42:41.692Z,3.17
2023-05-16T11:45:10.338Z,5.23
2023-05-16T11:47:38.994Z,2.20
2023-05-16T11:50:08.933Z,1.63
2023-05-16T11:52:35.962Z,2.37
2023-05-16T11:55:04.822Z,2.33
2023-05-16T11:57:32.063Z,3.87
2023-05-16T12:00:13.999Z,2.70
2023-05-16T12:02:40.784Z,3.50
2023-05-16T12:05:10.032Z,4.03
2023-05-16T12:07:40.994Z,4.22
2023-05-16T12:10:09.179Z,6.43
2023-05-16T12:12:37.077Z,3.07
2023-05-16T12:15:06.716Z,11.25
2023-05-16T12:17:38.425Z,6.30
2023-05-16T12:20:06.855Z,7.38
2023-05-16T12:22:34.688Z,5.68
2023-05-16T12:25:22.104Z,7.43
2023-05-16T12:27:48.760Z,4.68
2023-05-16T12:30:17.963Z,2.03
2023-05-16T12:32:45.298Z,4.60
2023-05-16T12:35:13.436Z,4.40
2023-05-16T12:37:40.179Z,6.13
2023-05-16T12:40:09.871Z,4.55
2023-05-16T12:42:37.090Z,4.95
2023-05-16T12:45:04.526Z,3.97
2023-05-16T12:47:38.641Z,4.93
2023-05-16T12:50:10.684Z,2.15
2023-05-16T12:52:37.717Z,5.78
2023-05-16T12:55:05.127Z,5.35
2023-05-16T12:57:34.389Z,7.85
2023-05-16T13:00:01.682Z,10.65
2023-05-16T13:02:28.478Z,6.20
2023-05-16T13:04:55.169Z,7.80
2023-05-16T13:07:21.749Z,4.45
2023-05-16T13:09:48.531Z,7.18
2023-05-16T13:12:15.950Z,1.95
2023-05-16T13:14:43.858Z,5.63
2023-05-16T13:17:12.020Z,6.32
2023-05-16T13:19:39.084Z,4.90
2023-05-16T13:22:05.870Z,2.17
2023-05-16T13:24:32.536Z,1.70
2023-05-16T13:27:00.108Z,4.93
2023-05-16T13:29:26.820Z,3.45
2023-05-16T13:31:53.520Z,2.97
2023-05-16T13:34:20.150Z,5.13
2023-05-16T13:36:54.086Z,5.00
2023-05-16T13:39:22.271Z,3.72
2023-05-16T13:41:49.289Z,1.60
2023-05-16T13:44:16.842Z,1.80
2023-05-16T13:46:43.756Z,4.40
2023-05-16T13:49:10.742Z,5.03
2023-05-16T13:51:37.378Z,4.00
2023-05-16T13:54:03.962Z,2.60
2023-05-16T13:56:30.660Z,1.77
2023-05-16T13:59:03.645Z,2.92
2023-05-16T14:01:33.440Z,3.33
2023-05-16T14:04:00.240Z,4.18
2023-05-16T14:06:26.898Z,2.75
2023-05-16T14:08:53.578Z,3.88
2023-05-16T14:11:23.185Z,3.53
2023-05-16T14:13:49.771Z,2.47
2023-05-16T14:16:18.681Z,1.83
2023-05-16T14:18:45.396Z,1.92
2023-05-16T14:21:12.159Z,5.45
2023-05-16T14:23:38.936Z,2.58
2023-05-16T14:26:07.579Z,3.63
2023-05-16T14:28:36.589Z,5.53
2023-05-16T14:31:03.424Z,2.60
2023-05-16T14:33:31.229Z,1.80
2023-05-16T14:35:57.882Z,2.55
2023-05-16T14:38:24.707Z,3.90
2023-05-16T14:40:51.316Z,3.45
2023-05-16T14:43:18.068Z,1.77
2023-05-16T14:45:44.830Z,6.60
2023-05-16T14:48:11.547Z,6.20
2023-05-16T14:50:38.265Z,5.55
2023-05-16T14:53:05.042Z,4.72
2023-05-16T14:55:31.713Z,7.47
2023-05-16T14:58:00.004Z,4.20
2023-05-16T15:00:27.526Z,4.22
2023-05-16T15:02:54.395Z,5.70
2023-05-16T15:05:21.244Z,2.03
2023-05-16T15:07:48.326Z,4.00
2023-05-16T15:10:14.993Z,4.93
2023-05-16T15:12:43.421Z,3.60
2023-05-16T15:15:16.382Z,5.47
2023-05-16T15:17:43.579Z,3.57
2023-05-16T15:20:11.751Z,4.57
2023-05-16T15:22:41.826Z,4.80
2023-05-16T15:25:09.308Z,7.43
2023-05-16T15:27:36.447Z,7.10
2023-05-16T15:30:03.978Z,5.77
2023-05-16T15:32:30.990Z,6.67
2023-05-16T15:34:57.691Z,6.13
2023-05-16T15:37:24.404Z,4.53
2023-05-16T15:39:51.273Z,5.53
2023-05-16T15:42:20.028Z,6.73
2023-05-16T15:44:46.885Z,4.07
2023-05-16T15:47:13.669Z,8.93
2023-05-16T15:49:40.461Z,9.40
2023-05-16T15:52:07.762Z,4.93
2023-05-16T15:54:35.946Z,6.60
2023-05-16T15:57:02.718Z,9.10
2023-05-16T15:59:29.387Z,6.97
2023-05-16T16:01:56.113Z,9.90
2023-05-16T16:04:23.734Z,9.50
2023-05-16T16:06:53.133Z,8.87
2023-05-16T16:09:19.816Z,5.90
2023-05-16T16:11:46.420Z,6.17
2023-05-16T16:14:13.124Z,5.30
2023-05-16T16:16:40.794Z,7.10
2023-05-16T16:19:08.579Z,2.47
2023-05-16T16:21:35.250Z,7.03
2023-05-16T16:24:01.895Z,8.23
2023-05-16T16:26:28.689Z,2.80
2023-05-16T16:28:55.456Z,4.70
2023-05-16T16:31:22.376Z,3.87
2023-05-16T16:33:49.390Z,5.93
2023-05-16T16:36:17.162Z,2.43
2023-05-16T16:38:44.197Z,3.93
2023-05-16T16:41:11.395Z,5.17
2023-05-16T16:43:40.947Z,6.37
2023-05-16T16:46:08.370Z,4.67
2023-05-16T16:48:37.235Z,4.57
2023-05-16T16:51:04.196Z,2.43
2023-05-16T16:53:30.882Z,4.13
2023-05-16T16:55:57.593Z,5.43
2023-05-16T16:58:24.236Z,6.50
2023-05-16T17:00:50.908Z,3.67
2023-05-16T17:03:17.599Z,6.70
2023-05-16T17:05:45.172Z,12.13
2023-05-16T17:08:12.369Z,5.40
2023-05-16T17:10:39.518Z,8.00
2023-05-16T17:13:10.536Z,7.27
2023-05-16T17:15:37.935Z,6.87
2023-05-16T17:18:08.669Z,5.27
2023-05-16T17:20:36.548Z,9.57
2023-05-16T17:23:03.943Z,4.63
2023-05-16T17:25:30.891Z,7.73
2023-05-16T17:27:57.736Z,8.43
2023-05-16T17:30:24.451Z,15.17
2023-05-16T17:32:51.408Z,6.43
2023-05-16T17:35:18.421Z,8.77
2023-05-16T17:37:47.511Z,10.07
2023-05-16T17:40:17.395Z,9.87
2023-05-16T17:42:45.543Z,9.23
2023-05-16T17:45:14.081Z,9.50
2023-05-16T17:47:41.445Z,8.53
2023-05-16T17:50:10.099Z,7.77
2023-05-16T17:52:38.116Z,22.43
2023-05-16T17:55:06.305Z,11.17
2023-05-16T17:57:34.422Z,16.33
2023-05-16T18:00:01.969Z,14.20
2023-05-16T18:02:28.747Z,18.07
2023-05-16T18:04:55.997Z,11.67
2023-05-16T18:07:22.825Z,11.37
2023-05-16T18:09:49.726Z,11.27
2023-05-16T18:12:16.564Z,11.90
2023-05-16T18:14:45.308Z,10.07
2023-05-16T18:17:13.540Z,16.80
2023-05-16T18:19:40.461Z,17.37
2023-05-16T18:22:08.969Z,13.47
2023-05-16T18:24:35.835Z,13.90
2023-05-16T18:27:03.337Z,14.90
2023-05-16T18:29:30.537Z,14.50
2023-05-16T18:31:58.054Z,15.43
2023-05-16T18:34:26.055Z,11.50
2023-05-16T18:36:52.785Z,13.30
2023-05-16T18:39:20.547Z,13.17
2023-05-16T18:41:48.534Z,14.03
2023-05-16T18:44:18.179Z,18.87
2023-05-16T18:46:46.582Z,13.80
2023-05-16T18:49:13.920Z,13.43
2023-05-16T18:51:40.919Z,14.77
2023-05-16T18:54:07.768Z,41.33
2023-05-16T18:56:34.572Z,20.20
2023-05-16T18:59:01.402Z,12.60
2023-05-16T19:01:28.259Z,17.87
2023-05-16T19:03:55.118Z,11.80
2023-05-16T19:06:21.886Z,13.73
2023-05-16T19:08:48.724Z,15.87
2023-05-16T19:11:16.543Z,14.83
2023-05-16T19:13:43.668Z,19.50
2023-05-16T19:16:10.645Z,22.83
2023-05-16T19:18:37.565Z,15.57
2023-05-16T19:21:04.530Z,15.07
2023-05-16T19:23:31.381Z,14.87
2023-05-16T19:25:58.219Z,16.10
2023-05-16T19:28:24.929Z,12.93
2023-05-16T19:30:51.776Z,19.53
2023-05-16T19:33:18.543Z,16.70
2023-05-16T19:35:45.880Z,17.87
2023-05-16T19:38:12.674Z,23.10
2023-05-16T19:40:39.383Z,18.77
2023-05-16T19:43:06.127Z,18.40
2023-05-16T19:45:32.737Z,14.80
2023-05-16T19:47:59.430Z,14.60
2023-05-16T19:50:26.586Z,22.50
2023-05-16T19:52:53.488Z,16.87
2023-05-16T19:55:20.157Z,21.80
2023-05-16T19:57:46.856Z,21.00
2023-05-16T20:00:14.431Z,16.27
2023-05-16T20:02:43.104Z,24.10
2023-05-16T20:05:10.284Z,15.57
2023-05-16T20:07:37.087Z,43.27
2023-05-16T20:10:03.814Z,20.27
2023-05-16T20:12:30.656Z,18.63
2023-05-16T20:14:57.273Z,17.13
2023-05-16T20:17:24.069Z,18.27
2023-05-16T20:19:50.981Z,11.80
2023-05-16T20:22:19.287Z,17.77
2023-05-16T20:24:45.979Z,19.23
2023-05-16T20:27:12.618Z,22.13
2023-05-16T20:29:39.292Z,15.23
2023-05-16T20:32:06.118Z,18.37
2023-05-16T20:34:32.800Z,17.63
2023-05-16T20:36:59.817Z,15.87
2023-05-16T20:39:26.495Z,18.60
2023-05-16T20:41:53.474Z,15.43
2023-05-16T20:44:20.741Z,18.80
2023-05-16T20:46:47.420Z,19.67
2023-05-16T20:49:14.039Z,19.10
2023-05-16T20:51:40.700Z,14.80
2023-05-16T20:54:07.372Z,18.93
2023-05-16T20:56:33.962Z,13.13
2023-05-16T20:59:01.934Z,15.83
2023-05-16T21:01:28.751Z,22.40
2023-05-16T21:03:55.528Z,18.37
2023-05-16T21:06:22.265Z,18.37
2023-05-16T21:08:48.882Z,19.93
2023-05-16T21:11:15.510Z,21.07
2023-05-16T21:13:42.224Z,24.93
2023-05-16T21:16:09.097Z,18.40
2023-05-16T21:18:35.880Z,18.47
2023-05-16T21:21:02.592Z,20.23
2023-05-16T21:23:29.169Z,18.10
2023-05-16T21:25:55.876Z,22.60
2023-05-16T21:28:22.669Z,16.30
2023-05-16T21:30:49.506Z,11.93
2023-05-16T21:33:16.474Z,18.67
2023-05-16T21:35:43.303Z,13.77
2023-05-16T21:38:10.073Z,14.57
2023-05-16T21:40:36.695Z,24.37
2023-05-16T21:43:03.406Z,12.87
2023-05-16T21:45:30.303Z,19.03
2023-05-16T21:47:57.299Z,18.37
2023-05-16T21:50:24.137Z,17.70
2023-05-16T21:52:51.175Z,19.70
2023-05-16T21:55:17.848Z,13.73
2023-05-16T21:57:44.531Z,20.57
2023-05-16T22:00:11.844Z,20.20
2023-05-16T22:02:38.768Z,20.43
2023-05-16T22:05:06.275Z,16.97
2023-05-16T22:07:32.997Z,24.93
2023-05-16T22:10:00.188Z,20.33
2023-05-16T22:12:27.629Z,16.97
2023-05-16T22:14:54.509Z,26.60
2023-05-16T22:17:21.666Z,23.50
2023-05-16T22:19:48.441Z,17.10
2023-05-16T22:22:15.464Z,15.43
2023-05-16T22:24:42.365Z,19.50
2023-05-16T22:27:09.168Z,21.97
2023-05-16T22:29:38.478Z,24.87
2023-05-16T22:32:07.221Z,26.77
2023-05-16T22:34:34.668Z,21.27
2023-05-16T22:37:01.281Z,20.63
2023-05-16T22:39:27.843Z,18.90
2023-05-16T22:41:54.436Z,18.50
2023-05-16T22:44:21.727Z,11.57
2023-05-16T22:46:48.539Z,22.13
2023-05-16T22:49:17.872Z,18.10
2023-05-16T22:51:45.005Z,16.03
2023-05-16T22:54:13.308Z,18.17
2023-05-16T22:56:39.933Z,14.87
2023-05-16T22:59:06.646Z,16.17
2023-05-16T23:01:33.648Z,14.53
2023-05-16T23:04:00.645Z,16.07
2023-05-16T23:06:27.701Z,18.27
2023-05-16T23:08:54.333Z,22.30
2023-05-16T23:11:22.263Z,19.37
2023-05-16T23:13:49.286Z,14.90
2023-05-16T23:16:16.600Z,18.83
2023-05-16T23:18:49.329Z,26.37
2023-05-16T23:21:16.470Z,20.40
2023-05-16T23:23:43.722Z,14.63
2023-05-16T23:26:10.397Z,15.70
2023-05-16T23:28:37.129Z,13.60
2023-05-16T23:31:03.816Z,19.53
2023-05-16T23:33:30.570Z,15.97
2023-05-16T23:35:57.277Z,18.60
2023-05-16T23:38:25.765Z,16.43
2023-05-16T23:40:52.365Z,15.27
2023-05-16T23:43:19.100Z,20.57
2023-05-16T23:45:46.024Z,15.00
2023-05-16T23:48:12.655Z,15.53
2023-05-16T23:50:39.435Z,11.03
2023-05-16T23:53:06.153Z,21.43
2023-05-16T23:55:32.736Z,16.53
2023-05-16T23:57:59.515Z,14.83
